Time;durP1;ratioP1;P1;durP2;ratioP2;P2;SDS_P1;SDS_P2;PMS_P1;PMS_P2;Temp;Humidity;BMP_temperature;BMP_pressure;BME280_temperature;BME280_humidity;BME280_pressure;Samples;Min_cycle;Max_cycle;Signal;HPM_P1;HPM_P2
2021/06/19 00:08:53;;;;;;;2.58;2.08;;;20.40;50.40;;;;;;20749980;28;20493;-58
2021/06/19 00:18:54;;;;;;;4.60;1.20;;;20.20;51.10;;;;;;20749013;28;20066;-58
2021/06/19 00:28:56;;;;;;;3.20;1.88;;;20.20;51.30;;;;;;20747324;28;20046;-57
2021/06/19 00:38:57;;;;;;;2.55;1.70;;;20.20;51.70;;;;;;20748014;28;20100;-57
2021/06/19 00:48:58;;;;;;;2.10;1.40;;;20.20;52.30;;;;;;20748240;28;20050;-53
2021/06/19 00:59:00;;;;;;;2.83;1.38;;;20.20;52.50;;;;;;20747087;28;20096;-55
2021/06/19 01:09:04;;;;;;;2.20;1.30;;;20.00;52.60;;;;;;20756908;28;20070;-55
2021/06/19 01:19:06;;;;;;;2.42;1.60;;;19.90;53.10;;;;;;20761249;28;20143;-55
2021/06/19 01:29:07;;;;;;;2.45;1.70;;;19.70;53.60;;;;;;20759982;28;20046;-57
2021/06/19 01:39:09;;;;;;;1.92;1.33;;;19.60;54.70;;;;;;20762940;28;20085;-55
2021/06/19 01:49:11;;;;;;;3.08;1.50;;;19.60;55.20;;;;;;20760245;28;20049;-55
2021/06/19 01:59:23;;;;;;;1.98;1.38;;;19.50;55.80;;;;;;20759686;28;20051;-57
2021/06/19 02:09:29;;;;;;;2.08;1.10;;;19.40;56.00;;;;;;20757330;28;20046;-57
2021/06/19 02:19:38;;;;;;;2.55;1.30;;;19.30;55.70;;;;;;20756122;28;20157;-55
2021/06/19 02:29:55;;;;;;;2.03;1.52;;;19.20;56.00;;;;;;20756712;28;20050;-59
2021/06/19 02:40:05;;;;;;;1.95;1.38;;;19.10;56.60;;;;;;20756641;28;20133;-58
2021/06/19 02:50:08;;;;;;;3.17;1.90;;;19.00;56.70;;;;;;20755642;28;20481;-58
2021/06/19 03:00:13;;;;;;;4.10;2.15;;;18.90;57.40;;;;;;20753524;28;20374;-55
2021/06/19 03:10:22;;;;;;;3.55;2.13;;;18.90;57.80;;;;;;20753416;28;20078;-55
2021/06/19 03:20:26;;;;;;;5.40;2.70;;;18.90;57.90;;;;;;20752653;28;20141;-58
2021/06/19 03:30:31;;;;;;;3.13;2.10;;;18.90;58.50;;;;;;20751392;28;20050;-58
2021/06/19 03:40:35;;;;;;;4.43;2.70;;;18.80;58.70;;;;;;20751570;28;20068;-57
2021/06/19 03:50:39;;;;;;;3.70;2.40;;;18.90;58.70;;;;;;20750684;28;20541;-56
2021/06/19 04:00:43;;;;;;;9.20;3.38;;;18.90;59.00;;;;;;20749338;28;20061;-57
2021/06/19 04:10:46;;;;;;;6.87;3.13;;;18.90;58.80;;;;;;20764268;28;20482;-55
2021/06/19 04:20:49;;;;;;;4.57;2.43;;;18.70;59.50;;;;;;20748910;28;20053;-54
2021/06/19 04:30:53;;;;;;;4.15;2.78;;;18.60;60.20;;;;;;20748891;28;20482;-55
2021/06/19 04:41:01;;;;;;;2.38;1.92;;;18.40;60.30;;;;;;20746994;28;20089;-55
2021/06/19 04:51:10;;;;;;;4.00;2.30;;;18.30;61.00;;;;;;20747438;28;20081;-56
2021/06/19 05:01:13;;;;;;;4.13;2.53;;;18.10;61.60;;;;;;20747403;28;20057;-56
2021/06/19 05:11:16;;;;;;;3.20;2.40;;;17.70;62.50;;;;;;20746576;28;20137;-55
2021/06/19 05:21:18;;;;;;;3.40;2.63;;;17.70;63.00;;;;;;20746027;28;20075;-55
2021/06/19 05:31:21;;;;;;;3.90;2.83;;;17.70;63.00;;;;;;20745450;28;20045;-56
2021/06/19 05:41:23;;;;;;;4.72;3.03;;;17.80;62.90;;;;;;20744429;28;20450;-57
2021/06/19 05:51:25;;;;;;;3.63;2.88;;;17.90;62.70;;;;;;20747196;28;20062;-57
2021/06/19 06:01:30;;;;;;;4.78;3.00;;;17.90;63.00;;;;;;20759650;28;20053;-57
2021/06/19 06:11:32;;;;;;;5.95;3.03;;;18.10;62.50;;;;;;20758593;28;20084;-57
2021/06/19 06:21:34;;;;;;;3.60;2.67;;;18.20;62.30;;;;;;20756939;28;20080;-55
2021/06/19 06:31:36;;;;;;;4.93;2.80;;;18.50;61.60;;;;;;20757178;28;20054;-55
2021/06/19 06:41:39;;;;;;;4.30;2.07;;;18.80;60.30;;;;;;20755012;28;20140;-56
2021/06/19 06:51:42;;;;;;;3.70;2.00;;;19.10;58.20;;;;;;20754157;28;20296;-57
2021/06/19 07:01:44;;;;;;;3.92;1.92;;;19.60;56.00;;;;;;20753327;28;20054;-58
2021/06/19 07:11:46;;;;;;;4.72;2.22;;;20.40;53.00;;;;;;20752675;28;20073;-57
2021/06/19 07:21:48;;;;;;;4.72;2.50;;;21.20;50.80;;;;;;20751896;28;20107;-57
2021/06/19 07:31:50;;;;;;;4.22;3.35;;;22.20;47.80;;;;;;20750746;28;20046;-58
2021/06/19 07:41:52;;;;;;;3.30;2.23;;;22.90;45.60;;;;;;20751460;28;20494;-56
2021/06/19 07:51:57;;;;;;;4.35;2.55;;;23.20;43.90;;;;;;20748387;28;20057;-57
2021/06/19 08:01:59;;;;;;;2.70;2.10;;;23.60;43.10;;;;;;20749233;28;20060;-57
2021/06/19 08:12:04;;;;;;;2.55;2.00;;;24.00;43.10;;;;;;20748689;28;20085;-57
2021/06/19 08:22:07;;;;;;;3.15;1.73;;;23.90;42.50;;;;;;20748324;28;20054;-56
2021/06/19 08:32:09;;;;;;;3.50;2.90;;;23.50;42.40;;;;;;20748262;28;20081;-57
2021/06/19 08:42:11;;;;;;;3.78;1.77;;;23.20;44.40;;;;;;20762714;28;20054;-58
2021/06/19 08:52:13;;;;;;;;;;;23.10;44.70;;;;;;20752873;28;20418;-57
2021/06/19 09:02:17;;;;;;;6.03;2.30;;;23.10;46.10;;;;;;20784995;28;19921;-55
2021/06/19 09:12:20;;;;;;;6.82;2.67;;;24.10;44.10;;;;;;20662213;28;20047;-54
2021/06/19 09:22:23;;;;;;;;;;;23.70;43.20;;;;;;20664493;28;20046;-55
2021/06/19 09:32:26;;;;;;;2.75;1.80;;;23.50;43.90;;;;;;20677480;28;19922;-58
2021/06/19 09:42:28;;;;;;;4.20;1.80;;;23.30;44.10;;;;;;20679226;28;20069;-57
2021/06/19 09:52:32;;;;;;;3.35;1.80;;;23.50;43.90;;;;;;20676793;28;20062;-57
2021/06/19 10:02:34;;;;;;;3.63;2.43;;;23.70;43.30;;;;;;20678056;28;20050;-56
2021/06/19 10:12:39;;;;;;;3.20;2.30;;;24.10;42.10;;;;;;20676021;28;20466;-55
2021/06/19 10:22:42;;;;;;;4.20;1.83;;;23.80;42.70;;;;;;20675031;28;20066;-56
2021/06/19 10:32:48;;;;;;;3.78;1.50;;;23.70;42.30;;;;;;20674601;28;20050;-56
2021/06/19 10:42:52;;;;;;;2.58;1.88;;;23.80;41.80;;;;;;20673915;28;20054;-56
2021/06/19 10:53:20;;;;;;;4.72;2.08;;;24.10;42.20;;;;;;20672563;28;20043;-52
2021/06/19 11:03:38;;;;;;;3.58;1.65;;;24.30;40.30;;;;;;20671757;28;20488;-53
2021/06/19 11:13:40;;;;;;;3.50;1.77;;;24.40;39.10;;;;;;20669924;28;20062;-54
2021/06/19 11:24:00;;;;;;;2.17;1.60;;;24.40;37.40;;;;;;20670433;28;20061;-54
2021/06/19 11:34:01;;;;;;;3.00;1.73;;;24.60;36.90;;;;;;20668556;28;20081;-53
2021/06/19 11:44:12;;;;;;;2.43;1.50;;;24.50;37.10;;;;;;20668293;28;20050;-53
2021/06/19 11:54:16;;;;;;;3.35;1.50;;;24.70;36.10;;;;;;20668561;28;20054;-56
2021/06/19 12:04:19;;;;;;;5.20;1.70;;;24.90;36.20;;;;;;20668488;28;20054;-53
2021/06/19 12:14:23;;;;;;;3.55;1.55;;;24.90;36.30;;;;;;20667662;28;20054;-59
2021/06/19 12:24:25;;;;;;;3.45;1.48;;;25.10;35.20;;;;;;20667927;28;20050;-57
2021/06/19 12:34:28;;;;;;;;;;;25.20;34.10;;;;;;20667420;28;20053;-59
2021/06/19 12:44:30;;;;;;;2.22;1.42;;;25.00;34.80;;;;;;20667537;28;19921;-57
2021/06/19 12:54:31;;;;;;;3.45;1.70;;;25.10;35.00;;;;;;20665961;28;20058;-54
2021/06/19 13:04:34;;;;;;;4.25;1.65;;;25.20;34.60;;;;;;20674217;28;20055;-57
2021/06/19 13:14:36;;;;;;;3.03;1.33;;;25.60;33.40;;;;;;20681470;28;20061;-59
2021/06/19 13:24:41;;;;;;;4.35;1.42;;;25.80;33.80;;;;;;20681580;28;20050;-56
2021/06/19 13:34:51;;;;;;;1.88;1.20;;;25.80;33.80;;;;;;20680921;28;20042;-56
2021/06/19 13:44:55;;;;;;;2.45;1.40;;;26.00;33.50;;;;;;20680388;28;20082;-58
2021/06/19 13:54:57;;;;;;;2.40;1.52;;;26.30;32.90;;;;;;20679311;28;20495;-55
2021/06/19 14:04:59;;;;;;;2.90;1.10;;;26.30;33.30;;;;;;20677724;28;20105;-55
2021/06/19 14:15:01;;;;;;;1.63;1.10;;;25.90;34.00;;;;;;20675075;28;20061;-55
2021/06/19 14:25:04;;;;;;;2.58;1.20;;;25.90;33.40;;;;;;20690732;28;20136;-59
2021/06/19 14:35:07;;;;;;;2.10;1.02;;;26.30;32.60;;;;;;20675255;28;20065;-56
2021/06/19 14:45:09;;;;;;;5.43;2.08;;;26.30;32.80;;;;;;20689467;28;20141;-56
2021/06/19 14:55:11;;;;;;;2.08;1.10;;;26.30;33.00;;;;;;20672782;28;20537;-58
2021/06/19 15:05:14;;;;;;;1.98;1.00;;;26.60;32.00;;;;;;20672580;28;20061;-57
2021/06/19 15:15:16;;;;;;;2.05;1.20;;;26.60;30.70;;;;;;20670129;28;20054;-58
2021/06/19 15:25:18;;;;;;;2.10;1.30;;;26.60;30.70;;;;;;20669433;28;20053;-57
2021/06/19 15:35:21;;;;;;;1.95;1.10;;;26.60;31.00;;;;;;20668657;28;20054;-57
2021/06/19 15:45:23;;;;;;;2.45;1.50;;;26.70;30.30;;;;;;20669786;28;20541;-55
2021/06/19 15:55:25;;;;;;;2.35;1.13;;;27.00;29.60;;;;;;20667597;28;20059;-57
2021/06/19 16:05:26;;;;;;;3.60;2.10;;;26.60;29.00;;;;;;20668193;28;20157;-56
2021/06/19 16:15:28;;;;;;;3.10;1.30;;;26.70;29.70;;;;;;20681669;28;20046;-56
2021/06/19 16:25:30;;;;;;;5.53;1.70;;;26.70;30.00;;;;;;20665879;28;20050;-55
2021/06/19 16:35:32;;;;;;;3.47;1.63;;;26.70;30.10;;;;;;20664525;28;20479;-55
2021/06/19 16:45:34;;;;;;;3.97;1.58;;;26.80;30.30;;;;;;20664806;28;20155;-54
2021/06/19 16:55:36;;;;;;;4.88;1.50;;;26.60;30.10;;;;;;20665564;28;20185;-58
2021/06/19 17:05:38;;;;;;;6.80;2.38;;;26.40;30.60;;;;;;20665434;28;20109;-58
2021/06/19 17:15:40;;;;;;;3.38;2.72;;;26.30;31.40;;;;;;20665212;28;20058;-58
2021/06/19 17:25:43;;;;;;;5.28;1.40;;;26.20;31.30;;;;;;20663865;28;20110;-58
2021/06/19 17:35:45;;;;;;;3.20;1.23;;;26.10;32.20;;;;;;20662580;28;20050;-58
2021/06/19 17:45:46;;;;;;;3.17;1.27;;;25.90;31.50;;;;;;20663344;28;20055;-55
2021/06/19 17:55:48;;;;;;;1.75;1.30;;;25.90;32.30;;;;;;20676009;28;20506;-56
2021/06/19 18:05:51;;;;;;;2.42;1.50;;;26.00;31.70;;;;;;20676290;28;20527;-54
2021/06/19 18:15:55;;;;;;;2.88;1.52;;;25.80;32.60;;;;;;20674667;28;20089;-55
2021/06/19 18:25:58;;;;;;;2.38;1.33;;;25.70;33.50;;;;;;20673353;28;20534;-55
2021/06/19 18:35:59;;;;;;;6.07;2.65;;;25.60;33.00;;;;;;20672685;28;20054;-56
2021/06/19 18:46:01;;;;;;;;;;;25.40;33.10;;;;;;20673175;28;20054;-57
2021/06/19 18:56:03;;;;;;;2.10;1.50;;;25.30;33.70;;;;;;20671497;28;19922;-58
2021/06/19 19:06:05;;;;;;;2.13;1.20;;;25.30;33.60;;;;;;20670939;28;20137;-55
2021/06/19 19:16:07;;;;;;;4.20;2.00;;;25.20;33.80;;;;;;20672041;28;20518;-55
2021/06/19 19:26:09;;;;;;;2.53;1.45;;;25.10;34.90;;;;;;20670121;28;20084;-55
2021/06/19 19:36:11;;;;;;;;;;;25.00;35.20;;;;;;20670513;28;20181;-56
2021/06/19 19:46:13;;;;;;;1.70;1.00;;;24.80;35.40;;;;;;20670011;28;19949;-56
2021/06/19 19:56:15;;;;;;;2.50;0.97;;;24.60;36.50;;;;;;20668439;28;20050;-57
2021/06/19 20:06:17;;;;;;;;;;;24.40;37.60;;;;;;20668085;28;20300;-57
2021/06/19 20:16:18;;;;;;;2.27;1.70;;;24.10;38.20;;;;;;20666095;28;19922;-54
2021/06/19 20:26:20;;;;;;;2.43;1.30;;;23.90;39.20;;;;;;20667219;28;20066;-55
2021/06/19 20:36:22;;;;;;;2.35;1.20;;;23.70;39.40;;;;;;20665941;28;20086;-55
2021/06/19 20:46:24;;;;;;;4.68;2.78;;;23.40;40.10;;;;;;20666941;28;20116;-55
2021/06/19 20:56:26;;;;;;;4.32;1.90;;;23.30;40.20;;;;;;20666796;28;20557;-57
2021/06/19 21:06:28;;;;;;;1.60;1.02;;;23.20;40.60;;;;;;20667074;28;20546;-55
2021/06/19 21:16:31;;;;;;;4.38;2.20;;;23.10;41.30;;;;;;20665463;28;20062;-57
2021/06/19 21:26:33;;;;;;;1.87;1.00;;;22.90;41.70;;;;;;20675071;28;20054;-58
2021/06/19 21:36:34;;;;;;;2.37;1.50;;;22.60;42.50;;;;;;20680201;28;20347;-54
2021/06/19 21:46:37;;;;;;;;;;;22.50;43.00;;;;;;20680523;28;20061;-56
2021/06/19 21:56:39;;;;;;;3.70;1.55;;;22.20;43.30;;;;;;20678029;28;19968;-55
2021/06/19 22:06:41;;;;;;;2.93;1.10;;;22.20;43.50;;;;;;20677891;28;20043;-58
2021/06/19 22:16:43;;;;;;;4.20;1.67;;;22.20;43.60;;;;;;20676918;28;20089;-55
2021/06/19 22:26:45;;;;;;;4.90;2.90;;;22.00;44.10;;;;;;20674827;28;20061;-56
2021/06/19 22:36:48;;;;;;;4.85;1.42;;;21.90;44.60;;;;;;20673971;28;20123;-57
2021/06/19 22:46:51;;;;;;;3.90;2.17;;;21.90;44.70;;;;;;20674390;28;20068;-55
2021/06/19 22:56:53;;;;;;;2.65;1.10;;;21.90;45.30;;;;;;20672643;28;20057;-56
2021/06/19 23:06:55;;;;;;;3.85;2.05;;;21.80;45.40;;;;;;20671588;28;20051;-55
2021/06/19 23:16:59;;;;;;;;;;;21.70;45.70;;;;;;20671734;28;20061;-54
2021/06/19 23:27:01;;;;;;;3.60;1.60;;;21.70;45.40;;;;;;20669136;28;19922;-55
2021/06/19 23:37:04;;;;;;;2.83;1.20;;;21.70;45.40;;;;;;20668471;28;20436;-54
2021/06/19 23:47:07;;;;;;;2.78;1.50;;;21.60;45.60;;;;;;20668443;28;20057;-54
2021/06/19 23:57:12;;;;;;;2.33;1.13;;;21.60;45.90;;;;;;20667827;28;20491;-57
